Time;durP1;ratioP1;P1;durP2;ratioP2;P2;SDS_P1;SDS_P2;PMS_P1;PMS_P2;Temp;Humidity;BMP_temperature;BMP_pressure;BME280_temperature;BME280_humidity;BME280_pressure;Samples;Min_cycle;Max_cycle;Signal;HPM_P1;HPM_P2
2021/11/25 00:02:42;;;;;;;1.42;1.20;;;15.60;56.70;;;;;;20718474;28;20034;-77
2021/11/25 00:12:43;;;;;;;2.47;1.20;;;15.60;56.80;;;;;;20734751;28;20244;-77
2021/11/25 00:22:45;;;;;;;2.72;1.33;;;15.60;56.80;;;;;;20716317;28;20042;-76
2021/11/25 00:32:45;;;;;;;1.90;1.00;;;15.50;56.80;;;;;;20716474;28;20029;-77
2021/11/25 00:42:47;;;;;;;2.47;1.17;;;15.50;56.80;;;;;;20698567;28;20061;-77
2021/11/25 00:52:48;;;;;;;2.47;1.13;;;15.60;56.90;;;;;;20698402;28;20038;-76
2021/11/25 01:02:49;;;;;;;1.45;1.15;;;15.50;56.90;;;;;;20696538;28;20037;-77
2021/11/25 01:12:53;;;;;;;1.33;0.85;;;15.50;57.00;;;;;;20697468;28;20038;-76
2021/11/25 01:22:54;;;;;;;1.33;0.90;;;15.50;56.90;;;;;;20712054;28;20484;-77
2021/11/25 01:32:55;;;;;;;1.70;1.00;;;15.40;57.00;;;;;;20711237;28;20052;-76
2021/11/25 01:42:57;;;;;;;1.10;0.70;;;15.40;57.00;;;;;;20725802;28;20061;-76
2021/11/25 01:52:59;;;;;;;0.98;0.90;;;16.30;55.30;;;;;;20708710;28;20034;-76
2021/11/25 02:02:59;;;;;;;3.30;0.82;;;17.60;52.60;;;;;;20709790;28;20772;-77
2021/11/25 02:13:00;;;;;;;1.10;0.57;;;18.80;49.60;;;;;;20707400;28;20041;-79
2021/11/25 02:23:02;;;;;;;0.90;0.70;;;19.90;47.20;;;;;;20692468;28;20038;-77
2021/11/25 02:33:03;;;;;;;1.02;0.80;;;20.40;45.80;;;;;;20709659;28;20350;-77
2021/11/25 02:43:16;;;;;;;1.20;0.85;;;20.50;45.10;;;;;;20723757;28;20459;-76
2021/11/25 02:53:22;;;;;;;1.75;0.80;;;20.50;44.90;;;;;;20707628;28;20030;-77
2021/11/25 03:03:26;;;;;;;0.63;0.50;;;20.20;45.10;;;;;;20723075;28;20495;-78
2021/11/25 03:13:27;;;;;;;0.95;0.63;;;19.30;46.70;;;;;;20722031;28;20034;-77
2021/11/25 03:23:28;;;;;;;0.75;0.70;;;18.40;48.50;;;;;;20703911;28;20054;-76
2021/11/25 03:33:30;;;;;;;1.33;0.70;;;17.70;50.00;;;;;;20704205;28;20030;-78
2021/11/25 03:43:31;;;;;;;1.05;0.75;;;17.10;51.30;;;;;;20719461;28;20041;-77
2021/11/25 03:53:32;;;;;;;1.00;0.68;;;16.70;52.40;;;;;;20717639;28;20092;-77
2021/11/25 04:03:33;;;;;;;1.05;0.70;;;16.50;53.00;;;;;;20701962;28;20050;-77
2021/11/25 04:13:37;;;;;;;1.73;1.15;;;16.30;53.30;;;;;;20734138;28;20045;-78
2021/11/25 04:23:40;;;;;;;1.00;0.60;;;16.30;53.60;;;;;;20716410;28;20038;-77
2021/11/25 04:44:00;;;;;;;1.40;0.70;;;16.30;53.80;;;;;;20703933;28;20054;-76
2021/11/25 04:54:05;;;;;;;1.45;0.77;;;16.40;53.90;;;;;;20731693;28;20048;-76
2021/11/25 05:04:06;;;;;;;0.80;0.70;;;16.30;53.90;;;;;;20697976;28;20030;-76
2021/11/25 05:14:07;;;;;;;1.33;0.88;;;16.20;54.00;;;;;;20712174;28;20117;-76
2021/11/25 05:24:09;;;;;;;1.25;0.73;;;16.20;54.00;;;;;;20696641;28;20105;-76
2021/11/25 05:34:10;;;;;;;1.52;0.90;;;16.20;54.20;;;;;;20712460;28;20034;-75
2021/11/25 05:44:10;;;;;;;1.27;0.85;;;16.20;54.30;;;;;;20695321;28;20050;-74
2021/11/25 05:54:11;;;;;;;0.82;0.57;;;16.10;54.50;;;;;;20689743;28;20173;-74
2021/11/25 06:04:13;;;;;;;1.55;0.75;;;16.00;54.50;;;;;;20680557;28;20077;-71
2021/11/25 06:14:14;;;;;;;1.65;0.98;;;16.00;54.60;;;;;;20707730;28;20127;-71
2021/11/25 06:24:15;;;;;;;1.70;0.95;;;15.90;54.80;;;;;;20706659;28;20045;-72
2021/11/25 06:34:15;;;;;;;1.38;0.80;;;15.80;55.00;;;;;;20690909;28;20034;-75
2021/11/25 06:44:17;;;;;;;1.83;0.75;;;15.70;55.20;;;;;;20661506;28;20046;-78
2021/11/25 06:54:18;;;;;;;1.50;0.82;;;15.60;55.40;;;;;;20649581;28;20038;-78
2021/11/25 07:04:19;;;;;;;2.38;1.20;;;15.50;55.70;;;;;;20659795;28;20381;-77
2021/11/25 07:14:20;;;;;;;2.33;1.10;;;15.40;56.10;;;;;;20724558;28;20042;-77
2021/11/25 07:24:22;;;;;;;2.75;0.90;;;15.20;56.40;;;;;;20667220;28;20030;-78
2021/11/25 07:34:23;;;;;;;1.92;1.20;;;15.00;56.90;;;;;;20704359;28;20404;-77
2021/11/25 07:44:24;;;;;;;1.90;1.15;;;14.80;57.30;;;;;;20639853;28;20477;-77
2021/11/25 07:54:26;;;;;;;2.17;1.17;;;14.70;57.80;;;;;;20666965;28;20096;-78
2021/11/25 08:04:27;;;;;;;1.17;0.82;;;14.50;58.10;;;;;;20732183;28;20042;-78
2021/11/25 08:14:29;;;;;;;2.15;1.08;;;14.40;58.40;;;;;;20701675;28;20404;-77
2021/11/25 08:24:30;;;;;;;1.70;1.08;;;14.30;58.70;;;;;;20717351;28;20045;-79
2021/11/25 08:34:32;;;;;;;1.30;0.93;;;14.20;59.00;;;;;;20732436;28;20464;-76
2021/11/25 08:44:33;;;;;;;2.22;1.20;;;14.20;59.20;;;;;;20650586;28;20117;-77
2021/11/25 08:54:34;;;;;;;1.50;0.90;;;14.10;59.50;;;;;;20708801;28;20065;-77
2021/11/25 09:04:34;;;;;;;1.73;1.00;;;14.00;59.60;;;;;;20679509;28;20066;-77
2021/11/25 09:14:37;;;;;;;2.30;0.88;;;14.00;59.70;;;;;;20695803;28;20037;-77
2021/11/25 09:24:39;;;;;;;1.73;1.13;;;14.00;59.80;;;;;;20728451;28;20049;-78
2021/11/25 09:34:40;;;;;;;3.45;1.55;;;13.90;59.80;;;;;;20694145;28;20088;-78
2021/11/25 09:44:42;;;;;;;2.72;1.70;;;13.90;59.80;;;;;;20709436;28;20084;-77
2021/11/25 09:54:43;;;;;;;3.88;2.13;;;13.80;59.60;;;;;;20708508;28;20508;-80
2021/11/25 10:04:46;;;;;;;3.67;1.90;;;13.80;59.60;;;;;;20693530;28;20066;-77
2021/11/25 10:14:47;;;;;;;3.60;2.22;;;13.80;59.60;;;;;;20723097;28;20069;-77
2021/11/25 10:24:51;;;;;;;5.22;2.30;;;13.80;59.50;;;;;;20706667;28;20127;-79
2021/11/25 10:35:07;;;;;;;4.50;2.67;;;13.80;59.30;;;;;;20720067;28;20030;-75
2021/11/25 10:45:14;;;;;;;3.72;2.47;;;13.80;59.10;;;;;;20725549;28;20045;-81
2021/11/25 10:55:15;;;;;;;5.05;3.08;;;13.80;58.90;;;;;;20723133;28;20042;-76
2021/11/25 11:05:21;;;;;;;6.20;3.53;;;13.80;58.80;;;;;;21136212;23;20331;-79
2021/11/25 11:25:25;;;;;;;6.40;2.95;;;15.20;55.70;;;;;;20644652;28;20513;-77
2021/11/25 11:35:26;;;;;;;8.73;3.70;;;17.30;51.20;;;;;;20643584;28;20177;-77
2021/11/25 11:45:33;;;;;;;5.43;2.90;;;18.60;47.90;;;;;;20640580;28;20133;-79
2021/11/25 11:55:41;;;;;;;5.07;3.45;;;19.00;46.80;;;;;;20624896;28;20045;-81
2021/11/25 12:05:46;;;;;;;5.13;2.97;;;19.50;45.50;;;;;;20622019;28;20058;-76
2021/11/25 12:15:47;;;;;;;6.40;4.07;;;20.10;44.00;;;;;;20558612;28;20041;-77
2021/11/25 12:25:47;;;;;;;7.45;3.28;;;20.20;43.40;;;;;;20557842;28;20035;-78
2021/11/25 12:35:48;;;;;;;6.17;3.20;;;20.30;43.10;;;;;;20604303;28;20042;-77
2021/11/25 12:45:54;;;;;;;5.97;3.92;;;20.30;43.00;;;;;;20620253;28;20596;-76
2021/11/25 12:55:59;;;;;;;;;;;20.20;42.90;;;;;;20635133;28;20093;-76
2021/11/25 13:06:00;;;;;;;5.68;3.35;;;19.40;44.10;;;;;;20633885;28;19933;-76
2021/11/25 13:16:10;;;;;;;4.60;2.65;;;18.40;45.70;;;;;;20616217;28;20038;-77
2021/11/25 13:26:12;;;;;;;5.57;3.15;;;17.70;47.20;;;;;;20615919;28;20398;-78
2021/11/25 13:36:12;;;;;;;6.30;3.88;;;17.10;48.30;;;;;;20631120;28;20037;-73
2021/11/25 13:46:13;;;;;;;7.75;3.47;;;16.70;49.20;;;;;;20646760;28;20034;-76
2021/11/25 13:56:13;;;;;;;5.60;2.80;;;16.50;49.80;;;;;;20630193;28;20117;-77
2021/11/25 14:06:25;;;;;;;6.82;3.50;;;16.50;50.00;;;;;;20628507;28;20060;-77
2021/11/25 14:16:25;;;;;;;5.80;3.28;;;16.60;50.00;;;;;;20604284;28;20558;-77
2021/11/25 14:26:44;;;;;;;4.10;2.87;;;16.60;50.00;;;;;;20627808;28;20121;-77
2021/11/25 14:36:44;;;;;;;7.40;3.60;;;16.60;49.80;;;;;;20616535;28;20278;-78
2021/11/25 14:47:00;;;;;;;5.38;2.92;;;16.70;49.80;;;;;;20610930;28;20038;-76
2021/11/25 14:57:01;;;;;;;7.07;3.77;;;16.80;49.80;;;;;;20607562;28;20034;-76
2021/11/25 15:07:02;;;;;;;9.37;4.03;;;16.80;49.80;;;;;;20641938;28;20508;-79
2021/11/25 15:17:03;;;;;;;8.00;3.65;;;16.80;49.80;;;;;;20632963;28;20281;-78
2021/11/25 15:27:04;;;;;;;8.45;4.05;;;16.80;49.80;;;;;;20657099;28;20084;-78
2021/11/25 15:37:06;;;;;;;7.53;3.63;;;16.70;49.80;;;;;;20641093;28;20121;-80
2021/11/25 15:47:07;;;;;;;7.60;3.58;;;17.00;49.60;;;;;;20658184;28;20551;-81
2021/11/25 15:57:11;;;;;;;8.15;3.75;;;18.00;47.90;;;;;;20624683;28;20038;-79
2021/11/25 16:07:12;;;;;;;7.18;3.53;;;19.00;45.80;;;;;;20633777;28;20417;-79
2021/11/25 16:17:14;;;;;;;3.83;2.38;;;19.90;44.30;;;;;;20653228;28;20030;-80
2021/11/25 16:27:15;;;;;;;4.43;2.50;;;20.20;43.90;;;;;;20642376;28;20034;-76
2021/11/25 16:37:15;;;;;;;5.60;3.60;;;20.40;42.80;;;;;;20618963;28;20089;-80
2021/11/25 16:57:26;;;;;;;4.25;2.60;;;19.40;44.80;;;;;;20641208;28;20042;-75
2021/11/25 17:07:27;;;;;;;7.35;3.60;;;18.40;45.60;;;;;;20638624;28;20051;-75
2021/11/25 17:17:27;;;;;;;6.32;4.20;;;17.60;47.20;;;;;;20647330;28;20034;-75
2021/11/25 17:27:29;;;;;;;7.00;3.33;;;17.10;48.60;;;;;;20658564;28;20030;-77
2021/11/25 17:37:30;;;;;;;7.63;4.78;;;16.60;49.60;;;;;;20632847;28;20085;-74
2021/11/25 17:47:30;;;;;;;8.03;5.03;;;16.30;50.60;;;;;;20633525;28;20038;-82
2021/11/25 17:57:31;;;;;;;8.82;5.40;;;16.20;50.90;;;;;;20629755;28;20733;-78
2021/11/25 18:07:31;;;;;;;8.18;4.97;;;16.20;51.10;;;;;;20646438;28;20053;-75
2021/11/25 18:17:32;;;;;;;7.03;4.85;;;16.20;51.10;;;;;;20656469;28;20040;-74
2021/11/25 18:27:32;;;;;;;10.70;4.65;;;16.20;51.10;;;;;;20614039;28;20042;-76
2021/11/25 18:37:33;;;;;;;6.07;3.92;;;16.30;51.10;;;;;;20628634;28;20043;-75
2021/11/25 18:47:35;;;;;;;7.45;4.32;;;16.30;51.00;;;;;;20609831;28;20126;-78
2021/11/25 18:57:35;;;;;;;6.80;4.35;;;16.40;51.10;;;;;;20630409;28;20112;-77
2021/11/25 19:07:36;;;;;;;7.55;4.13;;;16.40;51.00;;;;;;20645128;28;20051;-77
2021/11/25 19:17:36;;;;;;;10.30;5.25;;;16.40;50.90;;;;;;20644866;28;20037;-76
2021/11/25 19:27:37;;;;;;;9.98;4.40;;;16.40;51.00;;;;;;20644231;28;20177;-77
2021/11/25 19:37:39;;;;;;;7.40;4.20;;;16.40;51.00;;;;;;20636962;28;20395;-75
2021/11/25 19:47:41;;;;;;;10.15;5.15;;;16.40;51.00;;;;;;20630798;28;20128;-76
2021/11/25 19:57:43;;;;;;;7.35;4.13;;;16.40;51.00;;;;;;20624253;28;20042;-76
2021/11/25 20:07:51;;;;;;;8.32;5.15;;;16.40;51.00;;;;;;20586803;28;20057;-75
2021/11/25 20:17:51;;;;;;;8.30;3.97;;;16.30;51.00;;;;;;20640380;28;20378;-76
2021/11/25 20:27:52;;;;;;;10.23;3.65;;;16.30;51.10;;;;;;20577202;28;20046;-76
2021/11/25 20:37:53;;;;;;;7.38;4.43;;;16.40;51.20;;;;;;20616489;28;20044;-74
2021/11/25 20:47:57;;;;;;;7.03;3.67;;;16.30;51.10;;;;;;20642037;28;20101;-74
2021/11/25 20:57:57;;;;;;;8.32;4.70;;;16.20;51.10;;;;;;20626660;28;20053;-75
2021/11/25 21:07:58;;;;;;;6.75;4.18;;;16.20;51.20;;;;;;20619104;28;20034;-74
2021/11/25 21:17:58;;;;;;;10.00;4.70;;;16.30;51.30;;;;;;20630617;28;20057;-75
2021/11/25 21:27:59;;;;;;;7.15;4.70;;;16.30;51.40;;;;;;20650846;28;20779;-74
2021/11/25 21:38:00;;;;;;;7.75;3.92;;;16.20;51.40;;;;;;20635987;28;20076;-76
2021/11/25 21:48:00;;;;;;;7.75;4.40;;;16.10;51.40;;;;;;20617318;28;20548;-75
2021/11/25 21:58:01;;;;;;;9.90;5.22;;;16.10;51.40;;;;;;20613766;28;20034;-76
2021/11/25 22:08:14;;;;;;;8.60;4.95;;;16.10;51.40;;;;;;20623190;28;20042;-75
2021/11/25 22:18:16;;;;;;;7.97;4.28;;;16.20;51.50;;;;;;20637719;28;20476;-76
2021/11/25 22:28:16;;;;;;;7.32;4.38;;;16.10;51.50;;;;;;20632153;28;20043;-74
2021/11/25 22:38:17;;;;;;;10.73;5.18;;;16.00;51.50;;;;;;20630876;28;20430;-74
2021/11/25 22:48:17;;;;;;;7.80;5.13;;;16.10;51.60;;;;;;20632208;28;20567;-75
2021/11/25 22:58:18;;;;;;;9.88;4.82;;;16.10;51.60;;;;;;20645519;28;20089;-75
2021/11/25 23:08:18;;;;;;;8.07;5.00;;;16.00;51.50;;;;;;20662792;28;20051;-74
2021/11/25 23:18:19;;;;;;;10.93;4.82;;;16.00;51.50;;;;;;20629315;28;20281;-73
2021/11/25 23:28:22;;;;;;;13.55;6.45;;;15.90;51.40;;;;;;20628668;28;20042;-74
2021/11/25 23:38:22;;;;;;;9.68;4.45;;;15.90;51.50;;;;;;20642564;28;20414;-73
2021/11/25 23:48:26;;;;;;;9.63;5.00;;;15.90;51.40;;;;;;20643376;28;20070;-74
2021/11/25 23:58:27;;;;;;;10.02;6.15;;;15.90;51.50;;;;;;20641845;28;20039;-74
